createdAt,value
2022-10-02T00:02:11.337Z,99.90
2022-10-02T00:07:16.559Z,99.90
2022-10-02T00:12:22.026Z,99.90
2022-10-02T00:17:32.750Z,99.90
2022-10-02T00:22:34.990Z,99.90
2022-10-02T00:27:44.334Z,99.90
2022-10-02T00:33:11.215Z,99.90
2022-10-02T00:38:23.077Z,99.90
2022-10-02T00:44:06.589Z,99.90
2022-10-02T00:49:42.931Z,99.90
2022-10-02T00:54:56.328Z,99.90
2022-10-02T01:00:10.502Z,99.90
2022-10-02T01:05:13.634Z,99.90
2022-10-02T01:10:16.441Z,99.90
2022-10-02T01:15:22.242Z,99.90
2022-10-02T01:20:47.627Z,99.90
2022-10-02T01:25:50.408Z,99.90
2022-10-02T01:30:57.899Z,99.90
2022-10-02T01:36:01.079Z,99.90
2022-10-02T01:41:03.432Z,99.90
2022-10-02T01:46:40.032Z,99.90
2022-10-02T01:51:54.193Z,99.90
2022-10-02T01:57:23.807Z,99.90
2022-10-02T02:02:34.427Z,99.90
2022-10-02T02:07:48.437Z,99.90
2022-10-02T02:13:00.417Z,99.90
2022-10-02T02:18:11.748Z,99.90
2022-10-02T02:23:24.668Z,99.90
2022-10-02T02:28:30.460Z,99.90
2022-10-02T02:33:38.609Z,99.90
2022-10-02T02:38:49.122Z,99.90
2022-10-02T02:44:12.610Z,99.90
2022-10-02T02:49:15.134Z,99.90
2022-10-02T02:54:24.312Z,99.90
2022-10-02T02:59:31.417Z,99.90
2022-10-02T03:04:33.702Z,99.90
2022-10-02T03:09:37.916Z,99.90
2022-10-02T03:15:02.620Z,99.90
2022-10-02T03:20:47.959Z,99.90
2022-10-02T03:26:00.499Z,99.90
2022-10-02T03:31:03.660Z,99.90
2022-10-02T03:36:06.579Z,99.90
2022-10-02T03:41:08.925Z,99.90
2022-10-02T03:46:11.561Z,99.90
2022-10-02T03:51:13.897Z,99.90
2022-10-02T03:56:25.482Z,99.90
2022-10-02T04:01:36.932Z,99.90
2022-10-02T04:06:46.502Z,99.90
2022-10-02T04:11:57.309Z,99.90
2022-10-02T04:17:21.149Z,99.90
2022-10-02T04:22:35.285Z,99.90
2022-10-02T04:27:44.656Z,99.90
2022-10-02T04:32:47.655Z,99.90
2022-10-02T04:38:13.749Z,99.90
2022-10-02T04:43:21.919Z,99.90
2022-10-02T04:49:04.310Z,99.90
2022-10-02T04:54:34.686Z,99.90
2022-10-02T05:00:01.978Z,99.90
2022-10-02T05:05:33.540Z,99.90
2022-10-02T05:10:54.286Z,99.90
2022-10-02T05:16:28.526Z,99.90
2022-10-02T05:21:49.453Z,99.90
2022-10-02T05:27:29.093Z,99.90
2022-10-02T05:33:05.035Z,99.90
2022-10-02T05:38:33.661Z,99.90
2022-10-02T05:43:53.532Z,99.90
2022-10-02T05:49:02.041Z,99.90
2022-10-02T05:54:14.503Z,99.90
2022-10-02T05:59:32.546Z,99.90
2022-10-02T06:04:40.560Z,99.90
2022-10-02T06:09:52.407Z,99.90
2022-10-02T06:15:05.238Z,99.90
2022-10-02T06:20:35.170Z,99.90
2022-10-02T06:25:45.023Z,99.90
2022-10-02T06:30:53.131Z,99.90
2022-10-02T06:36:30.142Z,99.90
2022-10-02T06:42:00.156Z,99.90
2022-10-02T06:47:15.754Z,99.90
2022-10-02T06:52:44.536Z,99.90
2022-10-02T06:58:07.455Z,99.90
2022-10-02T07:03:50.755Z,99.90
2022-10-02T07:09:38.431Z,99.90
2022-10-02T07:14:59.366Z,99.90
2022-10-02T07:20:33.079Z,99.90
2022-10-02T07:26:00.483Z,99.90
2022-10-02T07:31:40.969Z,99.90
2022-10-02T07:37:10.684Z,99.90
2022-10-02T07:42:27.407Z,99.90
2022-10-02T07:47:59.459Z,99.90
2022-10-02T07:53:26.425Z,99.90
2022-10-02T07:58:36.991Z,99.90
2022-10-02T08:03:57.117Z,99.90
2022-10-02T08:09:24.583Z,99.90
2022-10-02T08:14:45.705Z,99.90
2022-10-02T08:19:51.570Z,99.90
2022-10-02T08:25:20.883Z,99.90
2022-10-02T08:30:23.487Z,99.90
2022-10-02T08:35:41.431Z,99.90
2022-10-02T08:41:09.812Z,99.90
2022-10-02T08:46:21.919Z,99.90
2022-10-02T08:51:51.897Z,99.90
2022-10-02T08:56:58.580Z,99.90
2022-10-02T09:02:29.488Z,99.90
2022-10-02T09:08:08.424Z,99.90
2022-10-02T09:13:23.399Z,99.90
2022-10-02T09:18:56.620Z,99.90
2022-10-02T09:24:10.575Z,99.90
2022-10-02T09:29:37.799Z,99.90
2022-10-02T09:35:17.314Z,99.90
2022-10-02T09:40:46.835Z,99.90
2022-10-02T09:46:17.209Z,99.90
2022-10-02T09:51:50.601Z,99.90
2022-10-02T09:57:12.216Z,99.90
2022-10-02T10:02:25.825Z,99.90
2022-10-02T10:07:36.948Z,99.90
2022-10-02T10:13:22.213Z,99.90
2022-10-02T10:18:39.412Z,99.90
2022-10-02T10:23:59.330Z,99.90
2022-10-02T10:29:25.655Z,99.90
2022-10-02T10:34:47.256Z,99.90
2022-10-02T10:40:21.227Z,99.90
2022-10-02T10:46:06.437Z,99.90
2022-10-02T10:51:23.897Z,98.70
2022-10-02T10:56:49.274Z,96.70
2022-10-02T11:02:20.953Z,95.00
2022-10-02T11:08:05.903Z,94.00
2022-10-02T11:13:29.069Z,93.10
2022-10-02T11:19:03.015Z,93.30
2022-10-02T11:24:18.447Z,93.50
2022-10-02T11:29:57.138Z,94.40
2022-10-02T11:35:28.539Z,93.30
2022-10-02T11:40:58.100Z,91.70
2022-10-02T11:46:06.531Z,91.10
2022-10-02T11:51:29.443Z,90.30
2022-10-02T11:56:40.927Z,92.00
2022-10-02T12:02:26.122Z,91.60
2022-10-02T12:07:40.750Z,88.60
2022-10-02T12:12:52.243Z,90.10
2022-10-02T12:18:02.676Z,90.60
2022-10-02T12:23:39.885Z,91.50
2022-10-02T12:28:57.000Z,91.00
2022-10-02T12:34:29.251Z,89.10
2022-10-02T12:39:47.245Z,86.90
2022-10-02T12:45:37.955Z,88.40
2022-10-02T12:50:55.264Z,87.50
2022-10-02T12:56:23.512Z,84.20
2022-10-02T13:01:54.288Z,81.90
2022-10-02T13:07:08.389Z,82.90
2022-10-02T13:12:38.184Z,78.10
2022-10-02T13:18:05.739Z,78.80
2022-10-02T13:23:13.943Z,80.70
2022-10-02T13:28:36.951Z,81.80
2022-10-02T13:33:42.164Z,79.70
2022-10-02T13:39:02.655Z,77.50
2022-10-02T13:44:24.493Z,78.40
2022-10-02T13:49:56.861Z,79.80
2022-10-02T13:55:08.258Z,81.80
2022-10-02T14:00:23.903Z,83.20
2022-10-02T14:05:34.651Z,83.00
2022-10-02T14:10:59.540Z,80.70
2022-10-02T14:16:41.669Z,80.20
2022-10-02T14:21:55.813Z,81.60
2022-10-02T14:27:06.564Z,82.30
2022-10-02T14:32:21.367Z,81.10
2022-10-02T14:37:37.078Z,82.40
2022-10-02T14:42:39.331Z,73.00
2022-10-02T14:47:57.607Z,68.10
2022-10-02T14:53:12.482Z,63.20
2022-10-02T14:59:09.905Z,64.00
2022-10-02T15:04:19.182Z,63.00
2022-10-02T15:09:46.374Z,63.00
2022-10-02T15:15:14.277Z,63.30
2022-10-02T15:20:22.633Z,64.40
2022-10-02T15:25:45.136Z,64.80
2022-10-02T15:30:57.217Z,63.30
2022-10-02T15:36:12.267Z,62.40
2022-10-02T15:41:40.646Z,65.40
2022-10-02T15:47:06.355Z,63.20
2022-10-02T15:52:27.312Z,66.20
2022-10-02T15:57:35.182Z,69.70
2022-10-02T16:02:59.991Z,78.10
2022-10-02T16:08:24.173Z,84.60
2022-10-02T16:13:53.192Z,90.10
2022-10-02T16:19:25.204Z,92.10
2022-10-02T16:25:03.904Z,92.10
2022-10-02T16:30:13.761Z,93.80
2022-10-02T16:35:43.530Z,95.10
2022-10-02T16:40:59.500Z,95.90
2022-10-02T16:47:00.653Z,96.60
2022-10-02T16:52:31.402Z,97.40
2022-10-02T16:57:39.583Z,98.00
2022-10-02T17:02:53.015Z,98.80
2022-10-02T17:08:13.943Z,99.90
2022-10-02T17:13:51.854Z,99.90
2022-10-02T17:18:58.533Z,99.90
2022-10-02T17:24:25.640Z,99.90
2022-10-02T17:29:37.434Z,99.90
2022-10-02T17:34:49.610Z,99.90
2022-10-02T17:40:16.731Z,99.90
2022-10-02T17:45:31.282Z,99.90
2022-10-02T17:50:57.623Z,99.90
2022-10-02T17:56:33.424Z,99.90
2022-10-02T18:01:57.277Z,99.90
2022-10-02T18:07:11.459Z,99.90
2022-10-02T18:12:56.110Z,99.90
2022-10-02T18:18:17.391Z,99.90
2022-10-02T18:23:38.512Z,99.90
2022-10-02T18:28:57.923Z,99.90
2022-10-02T18:34:06.931Z,99.90
2022-10-02T18:39:26.221Z,99.90
2022-10-02T18:44:48.453Z,99.90
2022-10-02T18:50:00.531Z,99.90
2022-10-02T18:55:05.840Z,99.90
2022-10-02T19:00:15.520Z,99.90
2022-10-02T19:05:29.816Z,99.90
2022-10-02T19:10:33.183Z,99.90
2022-10-02T19:15:36.681Z,99.90
2022-10-02T19:20:53.173Z,99.90
2022-10-02T19:25:58.604Z,99.90
2022-10-02T19:31:07.345Z,99.90
2022-10-02T19:36:17.036Z,99.90
2022-10-02T19:41:20.772Z,99.90
2022-10-02T19:46:41.120Z,99.90
2022-10-02T19:51:45.476Z,99.90
2022-10-02T19:56:49.356Z,99.90
2022-10-02T20:01:53.917Z,99.90
2022-10-02T20:06:59.124Z,99.90
2022-10-02T20:12:11.788Z,99.90
2022-10-02T20:17:17.742Z,99.90
2022-10-02T20:22:37.663Z,99.90
2022-10-02T20:27:43.086Z,99.90
2022-10-02T20:33:15.477Z,99.90
2022-10-02T20:38:49.624Z,99.90
2022-10-02T20:43:56.532Z,99.90
2022-10-02T20:49:37.480Z,99.90
2022-10-02T20:54:47.355Z,99.90
2022-10-02T21:00:08.793Z,99.90
2022-10-02T21:05:45.174Z,99.90
2022-10-02T21:11:06.242Z,99.90
2022-10-02T21:16:27.646Z,99.90
2022-10-02T21:21:39.072Z,99.90
2022-10-02T21:27:27.724Z,99.90
2022-10-02T21:32:41.865Z,99.90
2022-10-02T21:38:27.854Z,99.90
2022-10-02T21:43:44.322Z,99.90
2022-10-02T21:49:07.219Z,99.90
2022-10-02T21:54:30.301Z,99.90
2022-10-02T21:59:37.860Z,99.90
2022-10-02T22:05:13.894Z,99.90
2022-10-02T22:10:36.935Z,99.90
2022-10-02T22:15:48.486Z,99.90
2022-10-02T22:21:21.204Z,99.90
2022-10-02T22:26:55.253Z,99.90
2022-10-02T22:32:22.570Z,99.90
2022-10-02T22:37:50.115Z,99.90
2022-10-02T22:43:01.466Z,99.90
2022-10-02T22:48:12.308Z,99.90
2022-10-02T22:53:30.517Z,99.90
2022-10-02T22:58:44.435Z,99.90
2022-10-02T23:04:05.549Z,99.90
2022-10-02T23:09:26.883Z,99.90
2022-10-02T23:14:34.888Z,99.90
2022-10-02T23:19:43.948Z,99.90
2022-10-02T23:24:59.034Z,99.90
2022-10-02T23:30:21.861Z,99.90
2022-10-02T23:35:44.295Z,99.90
2022-10-02T23:41:26.708Z,99.90
2022-10-02T23:46:36.335Z,99.90
2022-10-02T23:52:14.530Z,99.90
2022-10-02T23:57:36.666Z,99.90
